createdAt,value
2023-09-27T00:00:16.433Z,9.75
2023-09-27T00:01:16.407Z,9.69
2023-09-27T00:02:16.384Z,9.64
2023-09-27T00:03:16.387Z,9.61
2023-09-27T00:04:16.337Z,9.59
2023-09-27T00:05:16.364Z,9.56
2023-09-27T00:06:16.352Z,9.53
2023-09-27T00:07:16.318Z,9.54
2023-09-27T00:08:16.309Z,9.56
2023-09-27T00:09:16.276Z,9.58
2023-09-27T00:10:16.273Z,9.59
2023-09-27T00:11:16.309Z,9.61
2023-09-27T00:12:16.235Z,9.63
2023-09-27T00:13:16.212Z,9.65
2023-09-27T00:14:16.290Z,9.65
2023-09-27T00:15:16.196Z,9.62
2023-09-27T00:16:16.188Z,9.58
2023-09-27T00:17:16.308Z,9.55
2023-09-27T00:18:16.194Z,9.53
2023-09-27T00:19:16.152Z,9.50
2023-09-27T00:20:16.149Z,9.45
2023-09-27T00:21:16.120Z,9.41
2023-09-27T00:22:16.107Z,9.38
2023-09-27T00:23:16.138Z,9.37
2023-09-27T00:24:16.092Z,9.39
2023-09-27T00:25:16.111Z,9.41
2023-09-27T00:26:16.095Z,9.44
2023-09-27T00:27:16.045Z,9.45
2023-09-27T00:28:16.058Z,9.44
2023-09-27T00:29:16.044Z,9.43
2023-09-27T00:30:16.079Z,9.42
2023-09-27T00:31:15.998Z,9.39
2023-09-27T00:32:16.034Z,9.36
2023-09-27T00:33:16.008Z,9.33
2023-09-27T00:34:15.982Z,9.30
2023-09-27T00:35:16.130Z,9.27
2023-09-27T00:36:15.922Z,9.24
2023-09-27T00:37:15.916Z,9.21
2023-09-27T00:38:15.960Z,9.19
2023-09-27T00:39:15.886Z,9.17
2023-09-27T00:40:15.912Z,9.15
2023-09-27T00:41:15.886Z,9.13
2023-09-27T00:42:15.872Z,9.11
2023-09-27T00:43:15.857Z,9.07
2023-09-27T00:44:15.846Z,9.05
2023-09-27T00:45:15.814Z,9.07
2023-09-27T00:46:15.863Z,9.10
2023-09-27T00:47:15.819Z,9.12
2023-09-27T00:48:15.842Z,9.14
2023-09-27T00:49:15.765Z,9.16
2023-09-27T00:50:15.894Z,9.17
2023-09-27T00:51:15.757Z,9.19
2023-09-27T00:52:15.755Z,9.21
2023-09-27T00:53:15.775Z,9.20
2023-09-27T00:54:15.728Z,9.18
2023-09-27T00:55:15.677Z,9.15
2023-09-27T00:56:15.693Z,9.12
2023-09-27T00:57:15.657Z,9.12
2023-09-27T00:58:15.650Z,9.15
2023-09-27T00:59:15.654Z,9.19
2023-09-27T01:00:15.648Z,9.21
2023-09-27T01:01:15.624Z,9.18
2023-09-27T01:02:15.627Z,9.13
2023-09-27T01:03:15.669Z,9.11
2023-09-27T01:04:15.561Z,9.10
2023-09-27T01:05:15.595Z,9.07
2023-09-27T01:06:15.603Z,9.05
2023-09-27T01:07:15.522Z,9.05
2023-09-27T01:08:15.560Z,9.06
2023-09-27T01:09:15.533Z,9.06
2023-09-27T01:10:15.492Z,9.04
2023-09-27T01:11:15.515Z,8.99
2023-09-27T01:12:15.454Z,8.93
2023-09-27T01:13:15.470Z,8.85
2023-09-27T01:14:15.465Z,8.81
2023-09-27T01:15:15.440Z,8.81
2023-09-27T01:16:15.433Z,8.82
2023-09-27T01:17:15.461Z,8.83
2023-09-27T01:18:15.400Z,8.82
2023-09-27T01:19:15.369Z,8.80
2023-09-27T01:20:15.444Z,8.77
2023-09-27T01:21:15.392Z,8.74
2023-09-27T01:22:15.332Z,8.71
2023-09-27T01:23:15.333Z,8.66
2023-09-27T01:24:15.297Z,8.63
2023-09-27T01:25:15.331Z,8.59
2023-09-27T01:26:15.298Z,8.56
2023-09-27T01:27:15.269Z,8.54
2023-09-27T01:28:15.253Z,8.52
2023-09-27T01:29:15.273Z,8.50
2023-09-27T01:30:15.242Z,8.53
2023-09-27T01:31:15.274Z,8.60
2023-09-27T01:32:15.231Z,8.70
2023-09-27T01:33:15.252Z,8.80
2023-09-27T01:34:15.183Z,8.88
2023-09-27T01:35:15.243Z,8.95
2023-09-27T01:36:15.151Z,8.99
2023-09-27T01:37:15.149Z,8.99
2023-09-27T01:38:15.157Z,8.96
2023-09-27T01:39:15.119Z,8.92
2023-09-27T01:40:15.090Z,8.89
2023-09-27T01:41:15.105Z,8.86
2023-09-27T01:42:15.121Z,8.85
2023-09-27T01:43:15.136Z,8.88
2023-09-27T01:44:15.086Z,8.91
2023-09-27T01:45:15.041Z,8.92
2023-09-27T01:46:15.082Z,8.90
2023-09-27T01:47:15.033Z,8.87
2023-09-27T01:48:15.133Z,8.83
2023-09-27T01:49:14.988Z,8.79
2023-09-27T01:50:15.004Z,8.77
2023-09-27T01:51:14.958Z,8.79
2023-09-27T01:52:14.947Z,8.82
2023-09-27T01:53:14.953Z,8.85
2023-09-27T01:54:14.952Z,8.88
2023-09-27T01:55:14.905Z,8.88
2023-09-27T01:56:14.936Z,8.87
2023-09-27T01:57:14.893Z,8.86
2023-09-27T01:58:14.862Z,8.86
2023-09-27T01:59:14.922Z,8.86
2023-09-27T02:00:14.869Z,8.82
2023-09-27T02:01:14.889Z,8.80
2023-09-27T02:02:14.824Z,8.83
2023-09-27T02:03:14.824Z,8.85
2023-09-27T02:04:14.862Z,8.84
2023-09-27T02:05:14.942Z,8.79
2023-09-27T02:06:14.757Z,8.74
2023-09-27T02:07:14.740Z,8.70
2023-09-27T02:08:14.780Z,8.65
2023-09-27T02:09:14.734Z,8.59
2023-09-27T02:10:14.711Z,8.53
2023-09-27T02:11:14.782Z,8.49
2023-09-27T02:12:14.674Z,8.47
2023-09-27T02:13:14.666Z,8.46
2023-09-27T02:14:14.683Z,8.46
2023-09-27T02:15:14.656Z,8.48
2023-09-27T02:16:14.688Z,8.53
2023-09-27T02:17:14.658Z,8.59
2023-09-27T02:18:14.675Z,8.63
2023-09-27T02:19:14.591Z,8.65
2023-09-27T02:20:14.626Z,8.67
2023-09-27T02:21:14.632Z,8.66
2023-09-27T02:22:14.559Z,8.64
2023-09-27T02:23:14.589Z,8.61
2023-09-27T02:24:14.542Z,8.58
2023-09-27T02:25:14.508Z,8.56
2023-09-27T02:26:14.594Z,8.55
2023-09-27T02:27:14.510Z,8.52
2023-09-27T02:28:14.490Z,8.48
2023-09-27T02:29:14.548Z,8.45
2023-09-27T02:30:14.461Z,8.41
2023-09-27T02:31:14.486Z,8.41
2023-09-27T02:32:14.478Z,8.45
2023-09-27T02:33:14.449Z,8.48
2023-09-27T02:34:14.454Z,8.50
2023-09-27T02:35:14.586Z,8.48
2023-09-27T02:36:14.364Z,8.45
2023-09-27T02:37:14.355Z,8.41
2023-09-27T02:38:14.381Z,8.37
2023-09-27T02:39:14.337Z,8.36
2023-09-27T02:40:15.042Z,8.37
2023-09-27T02:41:14.349Z,8.38
2023-09-27T02:42:14.295Z,8.37
2023-09-27T02:43:14.276Z,8.36
2023-09-27T02:44:14.320Z,8.36
2023-09-27T02:45:14.252Z,8.36
2023-09-27T02:46:14.281Z,8.37
2023-09-27T02:47:14.274Z,8.38
2023-09-27T02:48:14.247Z,8.39
2023-09-27T02:49:14.224Z,8.40
2023-09-27T02:50:14.215Z,8.40
2023-09-27T02:51:14.207Z,8.39
2023-09-27T02:52:14.170Z,8.37
2023-09-27T02:53:14.179Z,8.36
2023-09-27T02:54:14.138Z,8.35
2023-09-27T02:55:14.120Z,8.34
2023-09-27T02:56:14.180Z,8.32
2023-09-27T02:57:14.149Z,8.29
2023-09-27T02:58:14.098Z,8.25
2023-09-27T02:59:14.123Z,8.19
2023-09-27T03:00:14.058Z,8.14
2023-09-27T03:01:14.085Z,8.14
2023-09-27T03:02:14.061Z,8.18
2023-09-27T03:03:14.116Z,8.22
2023-09-27T03:04:14.038Z,8.25
2023-09-27T03:05:14.033Z,8.26
2023-09-27T03:06:14.004Z,8.27
2023-09-27T03:07:13.970Z,8.29
2023-09-27T03:08:14.050Z,8.30
2023-09-27T03:09:13.989Z,8.30
2023-09-27T03:10:13.953Z,8.29
2023-09-27T03:11:13.935Z,8.28
2023-09-27T03:12:13.903Z,8.27
2023-09-27T03:13:13.896Z,8.24
2023-09-27T03:14:13.948Z,8.20
2023-09-27T03:15:14.202Z,8.19
2023-09-27T03:16:13.879Z,8.21
2023-09-27T03:17:13.847Z,8.23
2023-09-27T03:18:13.877Z,8.22
2023-09-27T03:19:13.809Z,8.17
2023-09-27T03:20:13.837Z,8.11
2023-09-27T03:21:13.793Z,8.03
2023-09-27T03:22:13.785Z,7.95
2023-09-27T03:23:13.796Z,7.89
2023-09-27T03:24:13.745Z,7.83
2023-09-27T03:25:13.739Z,7.76
2023-09-27T03:26:13.807Z,7.70
2023-09-27T03:27:13.713Z,7.69
2023-09-27T03:28:13.697Z,7.73
2023-09-27T03:29:13.723Z,7.83
2023-09-27T03:30:13.679Z,7.91
2023-09-27T03:31:13.682Z,7.93
2023-09-27T03:32:13.745Z,7.94
2023-09-27T03:33:13.677Z,7.93
2023-09-27T03:34:13.620Z,7.93
2023-09-27T03:35:13.708Z,7.95
2023-09-27T03:36:13.604Z,7.96
2023-09-27T03:37:13.575Z,7.96
2023-09-27T03:38:13.586Z,7.96
2023-09-27T03:39:13.549Z,7.97
2023-09-27T03:40:13.555Z,7.96
2023-09-27T03:41:13.546Z,7.96
2023-09-27T03:42:13.515Z,7.95
2023-09-27T03:43:13.533Z,7.91
2023-09-27T03:44:13.509Z,7.87
2023-09-27T03:45:13.543Z,7.85
2023-09-27T03:46:13.470Z,7.89
2023-09-27T03:47:13.548Z,7.95
2023-09-27T03:48:13.553Z,8.01
2023-09-27T03:49:13.459Z,8.10
2023-09-27T03:50:13.521Z,8.19
2023-09-27T03:51:13.405Z,8.24
2023-09-27T03:52:13.412Z,8.28
2023-09-27T03:53:13.381Z,8.30
2023-09-27T03:54:13.363Z,8.31
2023-09-27T03:55:13.421Z,8.33
2023-09-27T03:56:13.373Z,8.33
2023-09-27T03:57:13.321Z,8.34
2023-09-27T03:58:13.356Z,8.34
2023-09-27T03:59:13.369Z,8.34
2023-09-27T04:00:13.332Z,8.33
2023-09-27T04:01:13.295Z,8.31
2023-09-27T04:02:13.374Z,8.26
2023-09-27T04:03:13.383Z,8.22
2023-09-27T04:04:13.303Z,8.19
2023-09-27T04:05:13.278Z,8.16
2023-09-27T04:06:13.238Z,8.11
2023-09-27T04:07:13.215Z,8.04
2023-09-27T04:08:13.272Z,7.96
2023-09-27T04:09:13.169Z,7.88
2023-09-27T04:10:13.148Z,7.82
2023-09-27T04:11:13.196Z,7.77
2023-09-27T04:12:13.174Z,7.76
2023-09-27T04:13:13.113Z,7.79
2023-09-27T04:14:13.172Z,7.83
2023-09-27T04:15:13.109Z,7.86
2023-09-27T04:16:13.127Z,7.89
2023-09-27T04:17:13.126Z,7.91
2023-09-27T04:18:13.105Z,7.91
2023-09-27T04:19:13.042Z,7.90
2023-09-27T04:20:13.064Z,7.87
2023-09-27T04:21:13.040Z,7.85
2023-09-27T04:22:13.040Z,7.83
2023-09-27T04:23:13.051Z,7.81
2023-09-27T04:24:12.978Z,7.79
2023-09-27T04:25:12.959Z,7.77
2023-09-27T04:26:13.052Z,7.78
2023-09-27T04:27:12.950Z,7.81
2023-09-27T04:28:12.934Z,7.83
2023-09-27T04:29:13.019Z,7.85
2023-09-27T04:30:12.897Z,7.85
2023-09-27T04:31:12.922Z,7.84
2023-09-27T04:32:12.910Z,7.80
2023-09-27T04:33:12.911Z,7.77
2023-09-27T04:34:12.885Z,7.75
2023-09-27T04:35:12.883Z,7.74
2023-09-27T04:36:12.824Z,7.73
2023-09-27T04:37:12.830Z,7.70
2023-09-27T04:38:12.838Z,7.66
2023-09-27T04:39:12.780Z,7.60
2023-09-27T04:40:13.032Z,7.56
2023-09-27T04:41:12.779Z,7.53
2023-09-27T04:42:12.744Z,7.51
2023-09-27T04:43:12.737Z,7.49
2023-09-27T04:44:12.737Z,7.47
2023-09-27T04:45:12.717Z,7.45
2023-09-27T04:46:12.781Z,7.43
2023-09-27T04:47:12.760Z,7.42
2023-09-27T04:48:12.695Z,7.42
2023-09-27T04:49:12.665Z,7.45
2023-09-27T04:50:12.670Z,7.50
2023-09-27T04:51:12.636Z,7.56
2023-09-27T04:52:12.656Z,7.60
2023-09-27T04:53:12.633Z,7.65
2023-09-27T04:54:12.629Z,7.71
2023-09-27T04:55:12.603Z,7.75
2023-09-27T04:56:12.989Z,7.79
2023-09-27T04:57:12.548Z,7.81
2023-09-27T04:58:12.570Z,7.83
2023-09-27T04:59:12.520Z,7.87
2023-09-27T05:00:12.513Z,7.95
2023-09-27T05:01:12.551Z,8.05
2023-09-27T05:02:12.519Z,8.16
2023-09-27T05:03:12.587Z,8.24
2023-09-27T05:04:12.530Z,8.30
2023-09-27T05:05:12.599Z,8.35
2023-09-27T05:06:12.437Z,8.38
2023-09-27T05:07:12.516Z,8.40
2023-09-27T05:08:12.500Z,8.40
2023-09-27T05:09:12.429Z,8.38
2023-09-27T05:10:12.406Z,8.36
2023-09-27T05:11:13.597Z,8.33
2023-09-27T05:12:12.389Z,8.32
2023-09-27T05:13:12.402Z,8.31
2023-09-27T05:14:12.372Z,8.31
2023-09-27T05:15:12.371Z,8.29
2023-09-27T05:16:12.323Z,8.26
2023-09-27T05:17:12.350Z,8.25
2023-09-27T05:18:12.351Z,8.25
2023-09-27T05:19:12.277Z,8.29
2023-09-27T05:20:13.819Z,8.33
2023-09-27T05:21:12.265Z,8.36
2023-09-27T05:22:12.236Z,8.37
2023-09-27T05:23:12.264Z,8.38
2023-09-27T05:24:12.208Z,8.39
2023-09-27T05:25:12.690Z,8.40
2023-09-27T05:26:12.244Z,8.41
2023-09-27T05:27:12.174Z,8.42
2023-09-27T05:28:12.194Z,8.43
2023-09-27T05:29:12.183Z,8.44
2023-09-27T05:30:12.118Z,8.45
2023-09-27T05:31:12.157Z,8.47
2023-09-27T05:32:12.248Z,8.47
2023-09-27T05:33:12.275Z,8.46
2023-09-27T05:34:12.103Z,8.43
2023-09-27T05:35:12.104Z,8.41
2023-09-27T05:36:12.049Z,8.40
2023-09-27T05:37:12.045Z,8.41
2023-09-27T05:38:12.086Z,8.44
2023-09-27T05:39:12.018Z,8.49
2023-09-27T05:40:12.232Z,8.54
2023-09-27T05:41:12.047Z,8.59
2023-09-27T05:42:11.973Z,8.64
2023-09-27T05:43:11.999Z,8.69
2023-09-27T05:44:12.096Z,8.74
2023-09-27T05:45:11.946Z,8.83
2023-09-27T05:46:11.917Z,8.93
2023-09-27T05:47:12.026Z,9.04
2023-09-27T05:48:11.993Z,9.12
2023-09-27T05:49:12.000Z,9.17
2023-09-27T05:50:11.908Z,9.21
2023-09-27T05:51:11.868Z,9.24
2023-09-27T05:52:11.847Z,9.26
2023-09-27T05:53:11.885Z,9.28
2023-09-27T05:54:11.862Z,9.30
2023-09-27T05:55:11.841Z,9.32
2023-09-27T05:56:11.837Z,9.34
2023-09-27T05:57:11.778Z,9.36
2023-09-27T05:58:11.777Z,9.38
2023-09-27T05:59:11.877Z,9.43
2023-09-27T06:00:11.797Z,9.50
2023-09-27T06:01:11.775Z,9.59
2023-09-27T06:02:11.781Z,9.68
2023-09-27T06:03:11.817Z,9.76
2023-09-27T06:04:11.752Z,9.80
2023-09-27T06:05:11.702Z,9.82
2023-09-27T06:06:11.722Z,9.83
2023-09-27T06:07:11.652Z,9.84
2023-09-27T06:08:11.675Z,9.83
2023-09-27T06:09:11.626Z,9.81
2023-09-27T06:10:11.629Z,9.80
2023-09-27T06:11:11.620Z,9.79
2023-09-27T06:12:11.656Z,9.76
2023-09-27T06:13:11.593Z,9.72
2023-09-27T06:14:11.912Z,9.67
2023-09-27T06:15:11.590Z,9.63
2023-09-27T06:16:11.593Z,9.58
2023-09-27T06:17:11.593Z,9.54
2023-09-27T06:18:11.639Z,9.50
2023-09-27T06:19:11.504Z,9.48
2023-09-27T06:20:11.572Z,9.48
2023-09-27T06:21:11.491Z,9.50
2023-09-27T06:22:11.451Z,9.52
2023-09-27T06:23:11.494Z,9.56
2023-09-27T06:24:11.449Z,9.60
2023-09-27T06:25:11.416Z,9.65
2023-09-27T06:26:11.470Z,9.71
2023-09-27T06:27:11.380Z,9.78
2023-09-27T06:28:11.419Z,9.87
2023-09-27T06:29:11.418Z,9.93
2023-09-27T06:30:11.350Z,9.99
2023-09-27T06:31:11.369Z,10.03
2023-09-27T06:32:11.394Z,10.06
2023-09-27T06:33:11.395Z,10.08
2023-09-27T06:34:11.318Z,10.09
2023-09-27T06:35:11.327Z,10.12
2023-09-27T06:36:11.279Z,10.18
2023-09-27T06:37:11.263Z,10.28
2023-09-27T06:38:11.301Z,10.40
2023-09-27T06:39:11.242Z,10.52
2023-09-27T06:40:11.257Z,10.63
2023-09-27T06:41:11.255Z,10.71
2023-09-27T06:42:11.203Z,10.73
2023-09-27T06:43:11.196Z,10.74
2023-09-27T06:44:11.201Z,10.75
2023-09-27T06:45:11.158Z,10.78
2023-09-27T06:46:11.184Z,10.82
2023-09-27T06:47:11.288Z,10.84
2023-09-27T06:48:11.317Z,10.86
2023-09-27T06:49:11.202Z,10.93
2023-09-27T06:50:11.171Z,11.01
2023-09-27T06:51:11.090Z,11.03
2023-09-27T06:52:11.085Z,11.00
2023-09-27T06:53:22.026Z,10.97
2023-09-27T06:54:11.116Z,10.94
2023-09-27T06:55:11.032Z,10.93
2023-09-27T06:56:11.092Z,10.96
2023-09-27T06:57:11.038Z,11.00
2023-09-27T06:58:11.021Z,11.04
2023-09-27T06:59:10.994Z,11.04
2023-09-27T07:00:11.011Z,11.01
2023-09-27T07:01:11.015Z,11.03
2023-09-27T07:02:11.017Z,11.12
2023-09-27T07:03:11.047Z,11.24
2023-09-27T07:04:10.986Z,11.36
2023-09-27T07:05:10.948Z,11.40
2023-09-27T07:06:10.896Z,11.41
2023-09-27T07:07:10.876Z,11.39
2023-09-27T07:08:10.919Z,11.38
2023-09-27T07:09:10.858Z,11.43
2023-09-27T07:10:10.836Z,11.51
2023-09-27T07:11:10.866Z,11.58
2023-09-27T07:12:10.803Z,11.65
2023-09-27T07:13:10.807Z,11.70
2023-09-27T07:14:10.889Z,11.69
2023-09-27T07:15:10.788Z,11.62
2023-09-27T07:16:10.764Z,11.54
2023-09-27T07:17:10.801Z,11.46
2023-09-27T07:18:10.930Z,11.41
2023-09-27T07:19:10.776Z,11.38
2023-09-27T07:20:10.776Z,11.40
2023-09-27T07:21:10.691Z,11.47
2023-09-27T07:22:10.701Z,11.58
2023-09-27T07:23:10.692Z,11.69
2023-09-27T07:24:10.671Z,11.72
2023-09-27T07:25:10.642Z,11.68
2023-09-27T07:26:10.703Z,11.66
2023-09-27T07:27:10.655Z,11.66
2023-09-27T07:28:10.606Z,11.62
2023-09-27T07:29:10.729Z,11.59
2023-09-27T07:30:10.591Z,11.62
2023-09-27T07:31:10.607Z,11.73
2023-09-27T07:32:10.640Z,11.90
2023-09-27T07:33:10.752Z,12.03
2023-09-27T07:34:10.556Z,12.12
2023-09-27T07:35:10.553Z,12.24
2023-09-27T07:36:10.497Z,12.36
2023-09-27T07:37:10.480Z,12.43
2023-09-27T07:38:10.606Z,12.48
2023-09-27T07:39:10.558Z,12.55
2023-09-27T07:40:10.828Z,12.63
2023-09-27T07:41:10.656Z,12.80
2023-09-27T07:42:10.455Z,13.00
2023-09-27T07:43:10.420Z,13.11
2023-09-27T07:44:10.462Z,13.16
2023-09-27T07:45:10.379Z,13.15
2023-09-27T07:46:10.378Z,13.05
2023-09-27T07:47:10.400Z,12.93
2023-09-27T07:48:10.381Z,12.89
2023-09-27T07:49:10.357Z,12.92
2023-09-27T07:50:10.372Z,12.89
2023-09-27T07:51:10.300Z,12.84
2023-09-27T07:52:10.297Z,12.84
2023-09-27T07:53:10.415Z,12.88
2023-09-27T07:54:10.405Z,12.99
2023-09-27T07:55:10.255Z,13.15
2023-09-27T07:56:10.473Z,13.27
2023-09-27T07:57:10.242Z,13.34
2023-09-27T07:58:10.210Z,13.36
2023-09-27T07:59:10.230Z,13.26
2023-09-27T08:00:10.216Z,13.07
2023-09-27T08:01:10.186Z,12.90
2023-09-27T08:02:10.206Z,12.78
2023-09-27T08:03:10.294Z,12.72
2023-09-27T08:04:12.104Z,12.77
2023-09-27T08:05:10.333Z,12.89
2023-09-27T08:06:10.107Z,13.02
2023-09-27T08:07:10.139Z,13.11
2023-09-27T08:08:10.132Z,13.13
2023-09-27T08:09:20.527Z,13.16
2023-09-27T08:10:21.487Z,13.21
2023-09-27T08:11:10.059Z,13.26
2023-09-27T08:12:10.035Z,13.29
2023-09-27T08:13:10.019Z,13.36
2023-09-27T08:14:10.039Z,13.49
2023-09-27T08:15:10.021Z,13.63
2023-09-27T08:16:10.054Z,13.79
2023-09-27T08:17:10.026Z,13.90
2023-09-27T08:18:10.033Z,13.94
2023-09-27T08:19:10.173Z,13.87
2023-09-27T08:20:09.988Z,13.76
2023-09-27T08:21:09.922Z,13.73
2023-09-27T08:22:09.950Z,13.73
2023-09-27T08:23:09.934Z,13.68
2023-09-27T08:24:09.876Z,13.60
2023-09-27T08:25:09.865Z,13.56
2023-09-27T08:26:09.866Z,13.56
2023-09-27T08:27:09.836Z,13.54
2023-09-27T08:28:09.850Z,13.60
2023-09-27T08:29:09.839Z,13.80
2023-09-27T08:30:09.816Z,14.03
2023-09-27T08:31:09.835Z,14.18
2023-09-27T08:32:09.809Z,14.21
2023-09-27T08:33:09.821Z,14.17
2023-09-27T08:34:09.762Z,14.13
2023-09-27T08:35:09.763Z,14.05
2023-09-27T08:36:09.721Z,13.99
2023-09-27T08:37:09.704Z,14.03
2023-09-27T08:38:09.727Z,14.12
2023-09-27T08:39:09.709Z,14.18
2023-09-27T08:40:09.675Z,14.18
2023-09-27T08:41:09.692Z,14.24
2023-09-27T08:42:09.670Z,14.43
2023-09-27T08:43:09.638Z,14.67
2023-09-27T08:44:09.671Z,14.86
2023-09-27T08:45:09.667Z,15.00
2023-09-27T08:46:09.628Z,15.13
2023-09-27T08:47:09.715Z,15.34
2023-09-27T08:48:09.599Z,15.58
2023-09-27T08:49:09.588Z,15.77
2023-09-27T08:50:09.588Z,15.83
2023-09-27T08:51:09.543Z,15.96
2023-09-27T08:52:09.563Z,16.27
2023-09-27T08:53:09.572Z,16.55
2023-09-27T08:54:09.513Z,16.65
2023-09-27T08:55:09.496Z,16.70
2023-09-27T08:56:09.530Z,16.86
2023-09-27T08:57:09.475Z,17.16
2023-09-27T08:58:09.466Z,17.52
2023-09-27T08:59:09.446Z,17.70
2023-09-27T09:00:09.525Z,17.67
2023-09-27T09:01:09.410Z,17.41
2023-09-27T09:02:09.444Z,17.04
2023-09-27T09:03:09.541Z,16.69
2023-09-27T09:04:09.422Z,16.46
2023-09-27T09:05:09.390Z,16.42
2023-09-27T09:06:09.390Z,16.47
2023-09-27T09:07:09.337Z,16.64
2023-09-27T09:08:09.421Z,16.86
2023-09-27T09:09:09.335Z,16.88
2023-09-27T09:10:09.294Z,16.82
2023-09-27T09:11:09.337Z,16.88
2023-09-27T09:12:09.286Z,17.18
2023-09-27T09:13:09.298Z,17.74
2023-09-27T09:14:09.302Z,18.38
2023-09-27T09:15:09.243Z,18.92
2023-09-27T09:16:09.276Z,19.50
2023-09-27T09:17:09.293Z,20.07
2023-09-27T09:18:09.267Z,20.50
2023-09-27T09:19:09.283Z,21.03
2023-09-27T09:20:09.245Z,21.68
2023-09-27T09:21:09.151Z,22.27
2023-09-27T09:22:09.179Z,22.68
2023-09-27T09:23:09.196Z,22.88
2023-09-27T09:24:09.192Z,23.09
2023-09-27T09:25:09.205Z,23.33
2023-09-27T09:26:09.141Z,23.59
2023-09-27T09:27:09.154Z,23.60
2023-09-27T09:28:09.134Z,23.16
2023-09-27T09:29:09.101Z,22.60
2023-09-27T09:30:09.074Z,22.33
2023-09-27T09:31:09.116Z,22.45
2023-09-27T09:32:09.065Z,22.69
2023-09-27T09:33:09.124Z,22.84
2023-09-27T09:34:09.037Z,22.78
2023-09-27T09:35:09.090Z,22.67
2023-09-27T09:36:09.026Z,22.88
2023-09-27T09:37:08.990Z,23.15
2023-09-27T09:38:09.025Z,23.21
2023-09-27T09:39:09.020Z,23.18
2023-09-27T09:40:08.941Z,23.04
2023-09-27T09:41:09.032Z,22.92
2023-09-27T09:42:08.914Z,22.96
2023-09-27T09:43:08.946Z,23.18
2023-09-27T09:44:08.952Z,23.40
2023-09-27T09:45:08.892Z,23.52
2023-09-27T09:46:09.051Z,23.48
2023-09-27T09:47:08.954Z,23.48
2023-09-27T09:48:08.890Z,23.58
2023-09-27T09:49:08.861Z,23.60
2023-09-27T09:50:08.872Z,23.58
2023-09-27T09:51:09.138Z,23.64
2023-09-27T09:52:08.851Z,23.88
2023-09-27T09:53:08.823Z,24.17
2023-09-27T09:54:09.358Z,24.47
2023-09-27T09:55:36.314Z,24.85
2023-09-27T09:56:29.121Z,25.09
2023-09-27T09:57:16.026Z,25.15
2023-09-27T09:58:08.810Z,25.04
2023-09-27T09:59:08.767Z,24.96
2023-09-27T10:00:08.771Z,25.07
2023-09-27T10:01:08.732Z,25.18
2023-09-27T10:02:08.749Z,25.11
2023-09-27T10:03:08.773Z,25.13
2023-09-27T10:04:08.858Z,25.34
2023-09-27T10:05:08.731Z,25.55
2023-09-27T10:06:08.712Z,25.63
2023-09-27T10:07:08.678Z,25.63
2023-09-27T10:08:08.900Z,25.68
2023-09-27T10:09:08.626Z,25.82
2023-09-27T10:10:08.619Z,25.86
2023-09-27T10:11:08.656Z,25.83
2023-09-27T10:12:08.673Z,25.83
2023-09-27T10:13:08.631Z,25.88
2023-09-27T10:14:08.620Z,25.90
2023-09-27T10:15:08.556Z,26.03
2023-09-27T10:16:08.619Z,26.13
2023-09-27T10:17:08.614Z,26.06
2023-09-27T10:18:08.672Z,26.11
2023-09-27T10:19:08.569Z,26.16
2023-09-27T10:20:08.572Z,26.14
2023-09-27T10:21:08.530Z,25.95
2023-09-27T10:22:08.505Z,25.65
2023-09-27T10:23:08.505Z,25.38
2023-09-27T10:24:08.513Z,25.24
2023-09-27T10:25:08.480Z,25.42
2023-09-27T10:26:08.452Z,25.67
2023-09-27T10:27:08.424Z,25.87
2023-09-27T10:28:08.447Z,26.16
2023-09-27T10:29:08.655Z,26.35
2023-09-27T10:30:08.459Z,26.44
2023-09-27T10:31:08.509Z,26.44
2023-09-27T10:32:08.427Z,26.32
2023-09-27T10:33:08.412Z,26.34
2023-09-27T10:34:08.370Z,26.45
2023-09-27T10:35:08.430Z,26.52
2023-09-27T10:36:09.372Z,26.63
2023-09-27T10:37:18.511Z,26.72
2023-09-27T10:38:08.925Z,26.80
2023-09-27T10:39:08.366Z,26.86
2023-09-27T10:40:08.878Z,26.78
2023-09-27T10:41:08.395Z,26.69
2023-09-27T10:42:08.375Z,26.68
2023-09-27T10:43:08.317Z,26.74
2023-09-27T10:44:08.319Z,26.76
2023-09-27T10:45:09.791Z,26.71
2023-09-27T10:46:08.239Z,26.63
2023-09-27T10:47:08.242Z,26.54
2023-09-27T10:48:08.275Z,26.44
2023-09-27T10:49:08.250Z,26.42
2023-09-27T10:50:08.284Z,26.51
2023-09-27T10:51:08.178Z,26.67
2023-09-27T10:52:08.206Z,26.82
2023-09-27T10:53:08.275Z,26.94
2023-09-27T10:54:08.267Z,26.95
2023-09-27T10:55:08.145Z,26.78
2023-09-27T10:56:08.128Z,26.46
2023-09-27T10:57:08.111Z,26.08
2023-09-27T10:58:08.127Z,25.81
2023-09-27T10:59:08.128Z,25.78
2023-09-27T11:00:08.096Z,25.90
2023-09-27T11:01:08.082Z,25.93
2023-09-27T11:02:08.095Z,26.08
2023-09-27T11:03:08.134Z,26.39
2023-09-27T11:04:08.058Z,26.73
2023-09-27T11:05:08.355Z,26.91
2023-09-27T11:06:08.089Z,26.98
2023-09-27T11:07:07.994Z,27.17
2023-09-27T11:08:08.032Z,27.30
2023-09-27T11:09:08.076Z,27.34
2023-09-27T11:10:07.971Z,27.35
2023-09-27T11:11:08.018Z,27.26
2023-09-27T11:12:07.943Z,27.02
2023-09-27T11:13:07.979Z,26.88
2023-09-27T11:14:07.981Z,26.95
2023-09-27T11:15:07.908Z,27.13
2023-09-27T11:16:07.970Z,27.25
2023-09-27T11:17:08.055Z,27.40
2023-09-27T11:18:07.966Z,27.62
2023-09-27T11:19:07.873Z,27.72
2023-09-27T11:20:07.969Z,27.64
2023-09-27T11:21:07.837Z,27.43
2023-09-27T11:22:07.938Z,27.25
2023-09-27T11:23:07.863Z,27.31
2023-09-27T11:24:07.814Z,27.55
2023-09-27T11:25:07.806Z,27.75
2023-09-27T11:26:07.835Z,27.90
2023-09-27T11:27:07.780Z,28.09
2023-09-27T11:28:07.825Z,28.25
2023-09-27T11:29:07.799Z,28.23
2023-09-27T11:30:07.826Z,28.07
2023-09-27T11:31:08.601Z,28.00
2023-09-27T11:32:08.395Z,27.77
2023-09-27T11:33:08.050Z,27.45
2023-09-27T11:34:07.702Z,27.22
2023-09-27T11:35:07.726Z,26.95
2023-09-27T11:36:07.691Z,26.79
2023-09-27T11:37:07.753Z,26.79
2023-09-27T11:38:07.725Z,26.91
2023-09-27T11:39:07.674Z,27.22
2023-09-27T11:40:07.686Z,27.44
2023-09-27T11:41:08.413Z,27.59
2023-09-27T11:42:07.621Z,27.82
2023-09-27T11:43:07.674Z,27.99
2023-09-27T11:44:07.650Z,27.73
2023-09-27T11:45:07.620Z,27.19
2023-09-27T11:46:07.612Z,26.76
2023-09-27T11:47:07.622Z,26.41
2023-09-27T11:48:07.634Z,26.18
2023-09-27T11:49:07.551Z,26.20
2023-09-27T11:50:07.657Z,26.45
2023-09-27T11:51:07.654Z,26.76
2023-09-27T11:52:07.527Z,27.00
2023-09-27T11:53:07.603Z,27.21
2023-09-27T11:54:07.527Z,27.36
2023-09-27T11:55:07.494Z,27.50
2023-09-27T11:56:07.538Z,27.67
2023-09-27T11:57:07.469Z,27.88
2023-09-27T11:58:07.441Z,28.04
2023-09-27T11:59:07.521Z,28.05
2023-09-27T12:00:07.545Z,27.84
2023-09-27T12:01:07.435Z,27.53
2023-09-27T12:02:16.822Z,27.19
2023-09-27T12:03:07.612Z,27.01
2023-09-27T12:04:07.831Z,27.01
2023-09-27T12:05:07.584Z,27.20
2023-09-27T12:06:07.661Z,27.25
2023-09-27T12:07:07.502Z,26.95
2023-09-27T12:08:07.406Z,26.62
2023-09-27T12:09:07.403Z,26.30
2023-09-27T12:10:07.390Z,25.84
2023-09-27T12:11:07.368Z,25.30
2023-09-27T12:12:07.476Z,24.72
2023-09-27T12:13:07.289Z,24.13
2023-09-27T12:14:07.296Z,23.62
2023-09-27T12:15:11.488Z,23.16
2023-09-27T12:16:08.468Z,22.78
2023-09-27T12:17:07.322Z,22.52
2023-09-27T12:18:07.900Z,22.37
2023-09-27T12:19:07.236Z,22.24
2023-09-27T12:20:09.280Z,22.14
2023-09-27T12:21:07.203Z,22.09
2023-09-27T12:22:07.200Z,22.08
2023-09-27T12:23:07.201Z,22.07
2023-09-27T12:24:07.164Z,21.96
2023-09-27T12:25:07.184Z,21.82
2023-09-27T12:26:07.178Z,21.70
2023-09-27T12:27:07.120Z,21.62
2023-09-27T12:28:07.694Z,21.59
2023-09-27T12:29:07.085Z,21.62
2023-09-27T12:30:07.101Z,21.66
2023-09-27T12:31:07.211Z,21.71
2023-09-27T12:32:07.044Z,21.74
2023-09-27T12:33:07.469Z,21.79
2023-09-27T12:34:07.070Z,21.79
2023-09-27T12:35:07.033Z,21.72
2023-09-27T12:36:07.504Z,21.63
2023-09-27T12:37:07.026Z,21.58
2023-09-27T12:38:06.985Z,21.55
2023-09-27T12:39:06.980Z,21.53
2023-09-27T12:40:06.947Z,21.48
2023-09-27T12:41:06.984Z,21.46
2023-09-27T12:42:06.927Z,21.51
2023-09-27T12:43:07.815Z,21.54
2023-09-27T12:44:06.950Z,21.50
2023-09-27T12:45:06.939Z,21.42
2023-09-27T12:46:06.936Z,21.35
2023-09-27T12:47:06.904Z,21.30
2023-09-27T12:48:07.003Z,21.28
2023-09-27T12:49:06.832Z,21.28
2023-09-27T12:50:06.815Z,21.29
2023-09-27T12:51:06.866Z,21.33
2023-09-27T12:52:06.822Z,21.39
2023-09-27T12:53:06.814Z,21.45
2023-09-27T12:54:06.897Z,21.53
2023-09-27T12:55:06.774Z,21.61
2023-09-27T12:56:06.777Z,21.69
2023-09-27T12:57:06.754Z,21.76
2023-09-27T12:58:07.399Z,21.82
2023-09-27T14:03:42.385Z,21.86
2023-09-27T14:03:48.459Z,21.74
2023-09-27T14:04:48.440Z,21.57
2023-09-27T14:05:48.451Z,21.48
2023-09-27T14:06:48.387Z,21.43
2023-09-27T14:07:48.387Z,21.42
2023-09-27T14:08:48.416Z,21.44